Terminal Aerodrome Forecast
Issued by NWS Wakefield, VA

Home | Current Version | Previous Version | Text Only | Print | Product List | Glossary On
Versions: 1 2 3 4 5 6 7 8 9 10 11 12 13 14 15
000
FTUS41 KAKQ 301120
TAFRIC
TAF
KRIC 301120Z 3012/3112 02005KT P6SM SCT150
     FM301500 05006KT P6SM SCT050
     FM310500 00000KT P6SM SKC
     FM310800 00000KT 4SM BR SCT150=

USA.gov is the U.S. government's official web portal to all federal, state and local government web resources and services.